RJNY(METAR)
12/11 18:00
METAR RJNY 110900Z 04014KT 9999 -RA FEW015 SCT035 OVC050 10/05 Q1023
RMK 1CU015 3SC035 8SC050 A3022=
戻る
トップページへ戻る
IMOC Co,.Ltd.